Time;durP1;ratioP1;P1;durP2;ratioP2;P2;SDS_P1;SDS_P2;PMS_P1;PMS_P2;Temp;Humidity;BMP_temperature;BMP_pressure;BME280_temperature;BME280_humidity;BME280_pressure;Samples;Min_cycle;Max_cycle;Signal;HPM_P1;HPM_P2
2021/08/17 00:01:20;;;;;;;0.00;0.00;;;;;;;25.77;46.11;99794.38;6152153;23;20041;-62
2021/08/17 00:04:06;;;;;;;0.10;0.10;;;;;;;25.75;46.10;99783.03;6152075;23;20029;-62
2021/08/17 00:06:52;;;;;;;0.10;0.10;;;;;;;25.70;46.14;99778.22;6152246;23;20028;-62
2021/08/17 00:09:38;;;;;;;0.10;0.10;;;;;;;25.73;46.18;99782.38;6152140;23;20022;-62
2021/08/17 00:12:23;;;;;;;0.00;0.00;;;;;;;25.70;46.40;99783.56;6151918;23;20017;-62
2021/08/17 00:15:10;;;;;;;0.05;0.05;;;;;;;25.68;46.45;99782.09;6151889;23;20068;-62
2021/08/17 00:17:56;;;;;;;0.30;0.30;;;;;;;25.65;46.41;99774.44;6152055;23;20361;-61
2021/08/17 00:20:42;;;;;;;0.10;0.10;;;;;;;25.69;46.43;99779.22;6153421;23;20021;-62
2021/08/17 00:23:29;;;;;;;0.20;0.20;;;;;;;25.69;46.37;99779.22;6152316;23;20102;-61
2021/08/17 00:26:15;;;;;;;0.10;0.10;;;;;;;25.68;46.29;99777.59;6152087;23;20072;-62
2021/08/17 00:29:01;;;;;;;0.00;0.00;;;;;;;25.63;46.30;99769.25;6150995;23;20083;-62
2021/08/17 00:31:47;;;;;;;0.10;0.10;;;;;;;25.70;46.16;99778.22;6152128;23;20041;-62
2021/08/17 00:34:32;;;;;;;0.43;0.22;;;;;;;25.69;46.38;99781.06;6152163;23;20044;-62
2021/08/17 00:37:19;;;;;;;0.28;0.28;;;;;;;25.67;46.31;99780.44;6150233;23;20029;-63
2021/08/17 00:40:05;;;;;;;0.10;0.10;;;;;;;25.66;46.54;99784.94;6151635;23;20644;-62
2021/08/17 00:42:51;;;;;;;0.10;0.10;;;;;;;25.64;46.59;99770.94;6152144;23;20100;-62
2021/08/17 00:45:37;;;;;;;0.10;0.10;;;;;;;25.65;46.42;99772.59;6150520;23;20049;-62
2021/08/17 00:48:03;;;;;;;0.10;0.10;;;;;;;25.63;46.39;99763.06;6150332;23;20018;-62
2021/08/17 00:50:30;;;;;;;0.35;0.35;;;;;;;25.68;46.48;99779.44;6151445;23;20033;-62
2021/08/17 00:52:56;;;;;;;0.10;0.10;;;;;;;25.63;46.56;99779.97;6150624;23;20032;-61
2021/08/17 00:55:23;;;;;;;0.20;0.20;;;;;;;25.65;46.58;99777.94;6150108;23;20456;-62
2021/08/17 00:57:49;;;;;;;0.17;0.17;;;;;;;25.64;46.67;99778.13;6150103;23;20072;-62
2021/08/17 01:00:15;;;;;;;0.10;0.10;;;;;;;25.58;46.59;99770.84;6151208;23;20369;-63
2021/08/17 01:02:42;;;;;;;0.30;0.30;;;;;;;25.61;46.74;99779.31;6149996;23;20488;-61
2021/08/17 01:05:08;;;;;;;0.10;0.10;;;;;;;25.57;46.71;99775.34;6151818;23;20059;-62
2021/08/17 01:07:35;;;;;;;0.10;0.10;;;;;;;25.58;46.79;99773.50;6151753;23;20488;-63
2021/08/17 01:10:01;;;;;;;0.10;0.10;;;;;;;25.55;46.82;99773.88;6152285;23;20020;-63
2021/08/17 01:12:27;;;;;;;0.10;0.10;;;;;;;25.54;46.81;99775.72;6151577;23;20020;-62
2021/08/17 01:14:54;;;;;;;0.22;0.22;;;;;;;25.53;46.77;99771.38;6151855;23;20365;-63
2021/08/17 01:17:20;;;;;;;0.20;0.20;;;;;;;25.51;47.07;99762.72;6150121;23;20021;-63
2021/08/17 01:19:48;;;;;;;0.10;0.10;;;;;;;25.52;47.06;99761.72;6151525;23;20076;-62
2021/08/17 01:22:14;;;;;;;0.10;0.10;;;;;;;25.48;47.08;99755.03;6125766;23;20021;-62
2021/08/17 01:24:40;;;;;;;0.10;0.10;;;;;;;25.47;46.95;99748.00;6151625;23;20357;-63
2021/08/17 01:27:06;;;;;;;4.75;0.32;;;;;;;25.44;47.18;99743.03;6151841;23;20025;-63
2021/08/17 01:29:32;;;;;;;0.10;0.10;;;;;;;25.51;46.83;99753.84;6151488;23;20018;-62
2021/08/17 01:31:58;;;;;;;0.10;0.10;;;;;;;25.50;47.19;99758.38;6152096;23;20478;-62
2021/08/17 01:34:24;;;;;;;0.10;0.10;;;;;;;25.50;46.94;99771.72;6151554;23;20017;-63
2021/08/17 01:36:50;;;;;;;0.10;0.10;;;;;;;25.50;47.14;99766.38;6153189;23;20264;-62
2021/08/17 01:39:16;;;;;;;0.10;0.10;;;;;;;25.50;46.88;99758.38;6151641;23;20100;-63
2021/08/17 01:41:43;;;;;;;0.10;0.10;;;;;;;25.41;46.95;99748.72;6153665;23;20014;-64
2021/08/17 01:44:11;;;;;;;0.52;0.52;;;;;;;25.48;47.16;99763.03;6127557;23;20027;-63
2021/08/17 01:46:39;;;;;;;0.05;0.05;;;;;;;25.50;46.94;99768.22;6153326;23;20397;-63
2021/08/17 01:49:05;;;;;;;0.10;0.10;;;;;;;25.50;46.96;99769.06;6151979;23;20018;-62
2021/08/17 01:51:32;;;;;;;0.10;0.10;;;;;;;25.52;47.19;99769.72;6153084;23;20100;-62
2021/08/17 01:53:59;;;;;;;0.10;0.10;;;;;;;25.54;47.04;99766.84;6153131;23;20017;-62
2021/08/17 01:56:25;;;;;;;0.10;0.10;;;;;;;25.55;47.02;99769.38;6151719;23;20366;-63
2021/08/17 01:58:51;;;;;;;0.10;0.10;;;;;;;25.54;46.89;99774.88;6153466;23;20052;-62
2021/08/17 02:01:21;;;;;;;;;;;;;;;25.55;46.96;99776.53;6153375;23;20117;-62
2021/08/17 02:03:47;;;;;;;0.10;0.10;;;;;;;25.49;46.92;99778.06;6153089;23;19916;-62
2021/08/17 02:06:14;;;;;;;0.80;0.20;;;;;;;25.51;46.89;99775.25;6153229;23;20028;-62
2021/08/17 02:08:40;;;;;;;0.63;0.63;;;;;;;25.49;47.03;99775.38;6153221;23;20112;-62
2021/08/17 02:11:06;;;;;;;0.10;0.10;;;;;;;25.40;47.03;99763.09;6153454;23;20025;-62
2021/08/17 02:13:32;;;;;;;0.10;0.10;;;;;;;25.46;47.11;99781.09;6152782;23;20079;-62
2021/08/17 02:16:00;;;;;;;0.10;0.10;;;;;;;25.45;47.14;99776.78;6153258;23;20040;-61
2021/08/17 02:18:30;;;;;;;0.45;0.45;;;;;;;25.46;47.37;99775.75;6152683;23;20457;-63
2021/08/17 02:21:16;;;;;;;0.17;0.17;;;;;;;25.36;47.50;99767.16;6152954;23;20021;-63
2021/08/17 02:24:02;;;;;;;0.10;0.10;;;;;;;25.47;47.16;99785.44;6152968;23;20104;-64
2021/08/17 02:26:47;;;;;;;0.63;0.63;;;;;;;25.51;47.24;99791.28;6153167;23;20025;-63
2021/08/17 02:29:33;;;;;;;0.10;0.10;;;;;;;25.54;47.09;99801.63;6152681;23;20028;-63
2021/08/17 02:32:19;;;;;;;0.10;0.10;;;;;;;25.56;47.09;99843.19;6152570;23;20499;-63
2021/08/17 02:35:06;;;;;;;0.10;0.10;;;;;;;25.49;47.33;99863.63;6152991;23;20100;-63
2021/08/17 02:37:51;;;;;;;0.10;0.10;;;;;;;25.47;47.47;99865.66;6152775;23;20021;-63
2021/08/17 02:40:38;;;;;;;0.32;0.32;;;;;;;25.42;47.56;99863.50;6152539;23;20533;-63
2021/08/17 02:43:24;;;;;;;0.10;0.10;;;;;;;25.42;47.72;99860.03;6152186;23;20466;-63
2021/08/17 02:46:10;;;;;;;0.22;0.22;;;;;;;25.37;47.80;99849.84;6152510;23;20029;-63
2021/08/17 02:48:56;;;;;;;0.05;0.05;;;;;;;25.41;47.56;99855.69;6151628;23;20017;-63
2021/08/17 02:51:41;;;;;;;0.22;0.20;;;;;;;25.41;47.39;99850.31;6152897;23;20449;-62
2021/08/17 02:54:27;;;;;;;0.10;0.10;;;;;;;25.47;47.58;99852.28;6152376;23;20104;-64
2021/08/17 02:57:13;;;;;;;0.10;0.10;;;;;;;25.47;47.47;99852.28;6152836;23;20100;-64
2021/08/17 02:59:59;;;;;;;0.20;0.20;;;;;;;25.51;47.34;99845.59;6152749;23;20398;-64
2021/08/17 03:02:45;;;;;;;0.13;0.13;;;;;;;25.50;47.28;99845.75;6152855;23;20017;-63
2021/08/17 03:05:31;;;;;;;0.10;0.10;;;;;;;25.60;47.42;99854.38;6152841;23;20021;-63
2021/08/17 03:08:17;;;;;;;0.10;0.10;;;;;;;25.63;47.24;99854.84;6153060;23;20076;-63
2021/08/17 03:11:05;;;;;;;0.30;0.30;;;;;;;25.69;46.81;99854.13;6151400;23;20079;-65
2021/08/17 03:13:51;;;;;;;0.10;0.10;;;;;;;25.74;46.95;99843.72;6152508;23;20024;-63
2021/08/17 03:16:37;;;;;;;0.10;0.10;;;;;;;25.79;46.69;99846.66;6152326;23;20233;-63
2021/08/17 03:19:23;;;;;;;0.10;0.10;;;;;;;25.84;46.48;99857.69;6152225;23;20017;-63
2021/08/17 03:22:09;;;;;;;0.32;0.32;;;;;;;25.97;46.33;99861.56;6152627;23;20100;-63
2021/08/17 03:24:58;;;;;;;0.15;0.15;;;;;;;26.07;45.86;99868.31;6152483;23;20524;-65
2021/08/17 03:27:44;;;;;;;0.10;0.10;;;;;;;26.13;45.75;99870.25;6152612;23;20029;-64
2021/08/17 03:30:30;;;;;;;0.10;0.10;;;;;;;26.13;45.82;99850.69;6152150;23;20021;-62
2021/08/17 03:33:15;;;;;;;0.13;0.13;;;;;;;26.28;45.35;99863.09;6152447;23;20022;-63
2021/08/17 03:36:04;;;;;;;0.10;0.10;;;;;;;26.42;45.06;99862.25;6152483;23;20021;-63
2021/08/17 03:38:50;;;;;;;0.10;0.10;;;;;;;26.57;44.68;99859.56;6151863;23;20117;-63
2021/08/17 03:41:36;;;;;;;0.20;0.20;;;;;;;26.93;43.82;99859.59;6151683;23;20540;-64
2021/08/17 03:44:22;;;;;;;0.22;0.22;;;;;;;27.52;42.82;99865.59;6151696;23;20409;-61
2021/08/17 03:47:08;;;;;;;0.15;0.15;;;;;;;27.81;41.84;99881.53;6152122;23;20053;-60
2021/08/17 03:49:54;;;;;;;0.10;0.10;;;;;;;27.84;41.62;99875.81;6152087;23;20025;-60
2021/08/17 03:52:40;;;;;;;0.20;0.20;;;;;;;27.79;41.91;99877.41;6151709;23;20021;-60
2021/08/17 03:55:27;;;;;;;0.10;0.10;;;;;;;27.91;41.63;99870.50;6151872;23;20072;-61
2021/08/17 03:58:13;;;;;;;0.10;0.10;;;;;;;28.20;41.13;99882.91;6151913;23;20496;-61
2021/08/17 04:00:59;;;;;;;0.32;0.32;;;;;;;28.40;40.71;99878.50;6152581;23;20452;-61
2021/08/17 04:03:45;;;;;;;0.75;0.75;;;;;;;28.76;40.17;99883.66;6152103;23;20026;-61
2021/08/17 04:06:30;;;;;;;0.38;0.30;;;;;;;29.20;39.22;99883.16;6150655;23;20071;-61
2021/08/17 04:09:16;;;;;;;0.10;0.10;;;;;;;29.70;38.24;99887.19;6151963;23;20144;-61
2021/08/17 04:12:03;;;;;;;0.20;0.20;;;;;;;30.23;37.25;99896.09;6152213;23;20024;-61
2021/08/17 04:14:49;;;;;;;0.30;0.30;;;;;;;30.43;36.79;99896.94;6152107;23;20105;-61
2021/08/17 04:17:35;;;;;;;0.30;0.30;;;;;;;30.76;36.21;99891.44;6151792;23;20017;-61
2021/08/17 04:20:21;;;;;;;0.25;0.25;;;;;;;31.17;35.36;99885.66;6151751;23;20044;-61
2021/08/17 04:23:07;;;;;;;0.47;0.47;;;;;;;31.44;34.75;99885.28;6151700;23;20390;-61
2021/08/17 04:25:53;;;;;;;0.30;0.30;;;;;;;31.41;34.76;99884.88;6152455;23;20028;-61
2021/08/17 04:28:39;;;;;;;0.15;0.15;;;;;;;31.30;34.86;99883.69;6151846;23;20369;-61
2021/08/17 04:31:25;;;;;;;0.20;0.20;;;;;;;31.37;34.68;99883.66;6151744;23;20029;-61
2021/08/17 04:34:10;;;;;;;0.10;0.10;;;;;;;31.65;34.37;99892.19;6151920;23;20441;-61
2021/08/17 04:36:56;;;;;;;0.15;0.15;;;;;;;31.41;34.61;99901.09;6151894;23;20021;-61
2021/08/17 04:39:42;;;;;;;0.20;0.20;;;;;;;31.09;35.06;99905.59;6151662;23;20021;-61
2021/08/17 04:42:28;;;;;;;0.25;0.25;;;;;;;30.78;35.51;99890.16;6151745;23;20411;-60
2021/08/17 04:45:14;;;;;;;0.13;0.13;;;;;;;30.40;36.24;99881.16;6151359;23;20113;-61
2021/08/17 04:48:00;;;;;;;0.13;0.13;;;;;;;29.96;36.97;99884.53;6151830;23;20021;-61
2021/08/17 04:50:47;;;;;;;0.15;0.15;;;;;;;29.61;37.66;99873.13;6151613;23;20022;-61
2021/08/17 04:53:33;;;;;;;0.10;0.10;;;;;;;29.37;38.08;99884.47;6150496;23;20025;-62
2021/08/17 04:56:19;;;;;;;0.13;0.13;;;;;;;29.16;38.51;99881.91;6151542;23;20353;-61
2021/08/17 04:59:05;;;;;;;3.83;0.20;;;;;;;28.99;38.79;99875.25;6150575;23;20021;-61
2021/08/17 05:01:50;;;;;;;0.10;0.10;;;;;;;28.73;39.25;99852.59;6150685;23;20156;-61
2021/08/17 05:04:37;;;;;;;0.10;0.10;;;;;;;28.76;39.44;99879.09;6151561;23;20044;-61
2021/08/17 05:07:22;;;;;;;0.00;0.00;;;;;;;28.65;39.59;99884.19;6153909;23;20021;-61
2021/08/17 05:10:10;;;;;;;0.10;0.10;;;;;;;28.54;39.86;99866.75;6153008;23;20460;-60
2021/08/17 05:12:56;;;;;;;0.10;0.10;;;;;;;28.50;39.86;99873.56;6153791;23;20017;-61
2021/08/17 05:15:42;;;;;;;0.20;0.20;;;;;;;28.41;40.32;99870.22;6152992;23;20440;-61
2021/08/17 05:18:32;;;;;;;0.10;0.10;;;;;;;28.35;40.00;99864.81;6153361;23;20022;-62
2021/08/17 05:21:18;;;;;;;0.00;0.00;;;;;;;28.37;40.34;99873.50;6153676;23;20443;-60
2021/08/17 05:24:04;;;;;;;0.10;0.10;;;;;;;28.31;40.46;99855.47;6153610;23;20517;-61
2021/08/17 05:26:50;;;;;;;0.10;0.10;;;;;;;28.31;40.34;99866.22;6152256;23;20433;-61
2021/08/17 05:29:36;;;;;;;0.13;0.13;;;;;;;28.29;40.40;99852.16;6153073;23;20055;-61
2021/08/17 05:32:03;;;;;;;0.10;0.10;;;;;;;28.23;40.46;99831.47;6153284;23;20018;-61
2021/08/17 05:34:29;;;;;;;0.10;0.10;;;;;;;28.37;40.23;99843.97;6152817;23;20151;-62
2021/08/17 05:36:55;;;;;;;0.00;0.00;;;;;;;28.43;40.01;99851.22;6151595;23;20115;-61
2021/08/17 05:39:21;;;;;;;0.10;0.10;;;;;;;28.50;39.82;99838.63;6153092;23;20021;-61
2021/08/17 05:41:47;;;;;;;0.20;0.20;;;;;;;28.74;39.76;99851.59;6153078;23;20048;-61
2021/08/17 05:44:13;;;;;;;0.10;0.10;;;;;;;28.91;39.21;99839.44;6153269;23;20472;-61
2021/08/17 05:46:39;;;;;;;0.10;0.10;;;;;;;29.04;38.95;99837.81;6152570;23;20074;-61
2021/08/17 05:49:05;;;;;;;0.13;0.13;;;;;;;29.21;38.60;99834.56;6153213;23;20017;-61
2021/08/17 05:51:31;;;;;;;0.20;0.20;;;;;;;29.51;38.07;99818.88;6152687;23;20018;-61
2021/08/17 05:53:57;;;;;;;0.20;0.20;;;;;;;30.39;36.43;99809.44;6151706;23;20022;-63
2021/08/17 05:56:23;;;;;;;0.20;0.20;;;;;;;31.18;34.86;99817.16;6152974;23;20354;-63
2021/08/17 05:58:50;;;;;;;0.10;0.10;;;;;;;31.84;33.50;99818.28;6152746;23;20098;-63
2021/08/17 06:01:16;;;;;;;0.20;0.20;;;;;;;32.12;32.67;99792.69;6152827;23;20072;-62
2021/08/17 06:03:42;;;;;;;0.30;0.30;;;;;;;32.57;32.42;99810.25;6152496;23;20041;-62
2021/08/17 06:06:08;;;;;;;0.10;0.10;;;;;;;32.79;31.62;99816.81;6151383;23;20024;-63
2021/08/17 06:08:34;;;;;;;0.25;0.25;;;;;;;33.14;31.54;99822.41;6152391;23;20018;-63
2021/08/17 06:11:00;;;;;;;0.17;0.17;;;;;;;33.39;30.60;99825.75;6152891;23;20022;-62
2021/08/17 06:13:27;;;;;;;0.20;0.20;;;;;;;33.77;29.94;99811.78;6152734;23;20356;-62
2021/08/17 06:15:53;;;;;;;0.30;0.30;;;;;;;34.52;28.97;99809.91;6152517;23;20691;-63
2021/08/17 06:18:20;;;;;;;0.10;0.10;;;;;;;36.13;26.66;99816.56;6152885;23;20041;-62
2021/08/17 06:20:46;;;;;;;0.20;0.20;;;;;;;39.23;22.45;99808.56;6150835;23;20559;-62
2021/08/17 06:23:12;;;;;;;0.20;0.20;;;;;;;41.32;19.70;99816.66;6152878;23;20610;-63
2021/08/17 06:25:38;;;;;;;0.20;0.20;;;;;;;41.34;19.56;99799.91;6152281;23;20026;-65
2021/08/17 06:28:08;;;;;;;0.40;0.40;;;;;;;40.69;20.33;99799.25;6126845;23;20029;-64
2021/08/17 06:30:35;;;;;;;0.60;0.60;;;;;;;42.50;18.26;99801.47;6150664;23;20480;-64
2021/08/17 06:33:08;;;;;;;0.20;0.20;;;;;;;43.80;16.58;99792.28;6153420;23;20017;-64
2021/08/17 06:35:41;;;;;;;0.35;0.35;;;;;;;44.57;16.00;99789.66;6152629;23;20033;-64
2021/08/17 06:38:07;;;;;;;0.32;0.32;;;;;;;44.86;15.63;99789.25;6080275;23;20017;-63
2021/08/17 06:40:33;;;;;;;0.35;0.35;;;;;;;44.30;16.49;99789.66;6152057;23;20033;-63
2021/08/17 06:42:59;;;;;;;0.28;0.28;;;;;;;44.51;16.14;99801.84;6152370;23;20116;-62
2021/08/17 06:45:26;;;;;;;0.20;0.20;;;;;;;43.42;17.11;99797.09;6150852;23;20061;-63
2021/08/17 06:47:53;;;;;;;0.98;0.63;;;;;;;40.45;19.92;99792.78;6152049;23;20017;-63
2021/08/17 06:50:20;;;;;;;0.20;0.20;;;;;;;38.14;23.34;99800.56;6152741;23;20018;-61
2021/08/17 06:52:46;;;;;;;0.20;0.20;;;;;;;36.82;25.11;99809.53;6152109;23;20014;-61
2021/08/17 06:55:12;;;;;;;0.10;0.10;;;;;;;36.02;26.06;99802.00;6152322;23;20028;-60
2021/08/17 06:57:43;;;;;;;0.10;0.10;;;;;;;35.53;26.78;99811.84;6150868;23;20021;-61
2021/08/17 07:00:10;;;;;;;0.10;0.10;;;;;;;35.12;27.70;99808.66;6126537;23;20024;-63
2021/08/17 07:02:36;;;;;;;0.22;0.22;;;;;;;34.86;27.70;99805.47;6150537;23;20287;-63
2021/08/17 07:05:05;;;;;;;0.10;0.10;;;;;;;34.70;27.99;99810.84;6152403;23;20053;-62
2021/08/17 07:07:31;;;;;;;0.10;0.10;;;;;;;34.52;28.56;99803.69;6150322;23;20418;-62
2021/08/17 07:09:58;;;;;;;0.20;0.20;;;;;;;34.37;28.67;99795.22;6152100;23;20107;-61
2021/08/17 07:12:27;;;;;;;0.10;0.10;;;;;;;34.35;28.87;99808.22;6152847;23;20382;-61
2021/08/17 07:14:55;;;;;;;0.10;0.10;;;;;;;34.23;28.93;99815.56;6150716;23;20485;-63
2021/08/17 07:17:22;;;;;;;0.40;0.40;;;;;;;34.12;29.13;99808.25;6152158;23;20025;-63
2021/08/17 07:19:48;;;;;;;0.10;0.10;;;;;;;34.02;29.41;99804.25;6151697;23;20021;-63
2021/08/17 07:22:14;;;;;;;0.20;0.20;;;;;;;33.93;29.76;99800.22;6152482;23;20033;-63
2021/08/17 07:24:40;;;;;;;0.10;0.10;;;;;;;33.84;29.49;99796.22;6151892;23;20513;-63
2021/08/17 07:27:06;;;;;;;0.10;0.10;;;;;;;33.76;29.69;99803.91;6151919;23;20501;-62
2021/08/17 07:29:32;;;;;;;0.50;0.50;;;;;;;33.71;30.07;99801.88;6151580;23;20018;-63
2021/08/17 07:31:58;;;;;;;0.20;0.20;;;;;;;33.61;30.00;99790.00;6151983;23;20087;-62
2021/08/17 07:34:24;;;;;;;0.10;0.10;;;;;;;33.59;29.98;99797.50;6152084;23;20072;-63
2021/08/17 07:36:50;;;;;;;0.30;0.30;;;;;;;33.45;30.33;99786.06;6151314;23;20013;-63
2021/08/17 07:39:17;;;;;;;0.10;0.10;;;;;;;33.41;30.74;99788.41;6150538;23;20022;-65
2021/08/17 07:41:44;;;;;;;0.43;0.43;;;;;;;33.33;30.65;99788.78;6151895;23;20071;-63
2021/08/17 07:44:11;;;;;;;0.10;0.10;;;;;;;33.27;30.70;99783.47;6150272;23;20025;-62
2021/08/17 07:46:37;;;;;;;0.20;0.20;;;;;;;33.22;30.72;99800.38;6151375;23;20028;-63
2021/08/17 07:49:03;;;;;;;0.40;0.25;;;;;;;33.10;31.35;99796.00;6152255;23;20028;-64
2021/08/17 07:51:29;;;;;;;0.10;0.10;;;;;;;33.01;31.06;99795.50;6151859;23;20017;-64
2021/08/17 07:53:55;;;;;;;0.30;0.30;;;;;;;32.95;31.28;99791.81;6151685;23;20022;-64
2021/08/17 07:56:21;;;;;;;0.10;0.10;;;;;;;32.89;31.37;99800.03;6152159;23;20064;-64
2021/08/17 07:58:47;;;;;;;0.10;0.10;;;;;;;32.80;31.39;99799.53;6150096;23;20064;-65
2021/08/17 08:01:13;;;;;;;0.20;0.20;;;;;;;32.75;31.77;99799.41;6151914;23;20357;-64
2021/08/17 08:03:46;;;;;;;0.10;0.10;;;;;;;32.66;31.75;99800.75;6150736;23;20100;-63
2021/08/17 08:06:22;;;;;;;0.15;0.15;;;;;;;32.56;32.24;99808.56;6150603;23;20017;-62
2021/08/17 08:08:48;;;;;;;0.13;0.13;;;;;;;32.47;32.22;99804.50;6151339;23;20021;-62
2021/08/17 08:11:15;;;;;;;0.17;0.17;;;;;;;32.40;32.62;99804.59;6151425;23;20343;-62
2021/08/17 08:13:41;;;;;;;0.22;0.22;;;;;;;32.31;32.79;99794.31;6151304;23;20456;-63
2021/08/17 08:16:07;;;;;;;0.00;0.00;;;;;;;32.26;32.65;99803.13;6151648;23;20021;-63
2021/08/17 08:18:34;;;;;;;0.10;0.10;;;;;;;32.16;33.12;99796.59;6151667;23;20462;-63
2021/08/17 08:21:00;;;;;;;0.10;0.10;;;;;;;32.06;33.19;99789.00;6151539;23;20017;-63
2021/08/17 08:23:26;;;;;;;0.15;0.15;;;;;;;31.96;32.98;99791.38;6151694;23;20104;-63
2021/08/17 08:25:52;;;;;;;0.10;0.10;;;;;;;31.93;33.51;99797.22;6151452;23;20043;-63
2021/08/17 08:28:18;;;;;;;0.10;0.10;;;;;;;31.85;33.70;99806.44;6151752;23;20131;-62
2021/08/17 08:30:45;;;;;;;0.20;0.20;;;;;;;31.78;33.61;99800.25;6151310;23;20108;-63
2021/08/17 08:33:11;;;;;;;0.13;0.13;;;;;;;31.68;34.17;99799.94;6152302;23;20021;-62
2021/08/17 08:35:37;;;;;;;0.05;0.05;;;;;;;31.65;33.97;99802.25;6151926;23;20104;-62
2021/08/17 08:38:03;;;;;;;0.00;0.00;;;;;;;31.55;34.27;99802.75;6151457;23;20021;-63
2021/08/17 08:40:29;;;;;;;0.20;0.20;;;;;;;31.45;34.36;99795.13;6153108;23;20021;-62
2021/08/17 08:42:56;;;;;;;0.10;0.10;;;;;;;31.43;34.56;99794.53;6151676;23;20469;-63
2021/08/17 08:45:22;;;;;;;0.00;0.00;;;;;;;31.34;34.45;99798.56;6153562;23;20411;-63
2021/08/17 08:47:47;;;;;;;0.20;0.20;;;;;;;31.32;34.83;99783.59;6153126;23;20064;-63
2021/08/17 08:50:14;;;;;;;0.20;0.20;;;;;;;31.26;34.70;99800.69;6153435;23;20026;-62
2021/08/17 08:52:40;;;;;;;0.20;0.20;;;;;;;31.16;35.15;99797.66;6152929;23;20150;-63
2021/08/17 08:55:07;;;;;;;0.32;0.32;;;;;;;31.16;35.18;99800.34;6153378;23;20021;-61
2021/08/17 08:57:33;;;;;;;0.10;0.10;;;;;;;31.13;35.13;99806.19;6151910;23;20497;-63
2021/08/17 09:00:00;;;;;;;0.10;0.10;;;;;;;31.10;35.19;99798.53;6152909;23;20097;-63
2021/08/17 09:02:30;;;;;;;0.08;0.08;;;;;;;31.05;35.26;99798.34;6153616;23;20018;-64
2021/08/17 09:04:57;;;;;;;0.10;0.10;;;;;;;31.03;35.25;99805.81;6153177;23;20022;-62
2021/08/17 09:07:42;;;;;;;0.05;0.05;;;;;;;31.02;35.43;99805.03;6153464;23;20530;-62
2021/08/17 09:10:16;;;;;;;0.20;0.20;;;;;;;31.01;35.52;99813.31;6151827;23;20017;-62
2021/08/17 09:12:43;;;;;;;0.08;0.08;;;;;;;30.98;35.57;99799.22;6152981;23;20088;-62
2021/08/17 09:15:12;;;;;;;0.10;0.10;;;;;;;30.96;35.46;99806.69;6153669;23;20419;-64
2021/08/17 09:17:40;;;;;;;0.10;0.10;;;;;;;30.95;35.58;99807.75;6152900;23;20056;-64
2021/08/17 09:20:13;;;;;;;0.15;0.15;;;;;;;30.91;35.55;99797.59;6151693;23;20385;-64
2021/08/17 09:22:41;;;;;;;0.20;0.20;;;;;;;30.85;35.73;99788.50;6152939;23;20163;-64
2021/08/17 09:25:07;;;;;;;0.20;0.20;;;;;;;30.85;35.85;99796.59;6127326;23;20025;-63
2021/08/17 09:27:35;;;;;;;0.00;0.00;;;;;;;30.81;35.95;99795.34;6153203;23;20068;-63
2021/08/17 09:30:06;;;;;;;0.20;0.20;;;;;;;30.78;35.93;99792.25;6152760;23;20025;-64
2021/08/17 09:32:33;;;;;;;0.10;0.10;;;;;;;30.74;36.15;99794.56;6151587;23;20100;-64
2021/08/17 09:35:00;;;;;;;0.05;0.05;;;;;;;30.70;36.19;99790.63;6151343;23;20048;-65
2021/08/17 09:37:31;;;;;;;0.88;0.88;;;;;;;30.67;36.33;99779.47;6152983;23;20021;-63
2021/08/17 09:39:57;;;;;;;0.10;0.10;;;;;;;30.66;36.39;99777.81;6126761;23;20108;-64
2021/08/17 09:42:30;;;;;;;0.20;0.20;;;;;;;30.64;36.40;99771.81;6151488;23;20405;-64
2021/08/17 09:45:15;;;;;;;0.17;0.17;;;;;;;30.59;36.44;99772.47;6152622;23;20021;-65
2021/08/17 09:47:43;;;;;;;0.13;0.13;;;;;;;30.58;36.65;99775.34;6152650;23;20017;-64
2021/08/17 09:50:28;;;;;;;0.00;0.00;;;;;;;30.54;36.58;99774.97;6152821;23;20029;-65
2021/08/17 09:53:18;;;;;;;0.13;0.13;;;;;;;30.54;36.75;99769.56;6152583;23;20048;-64
2021/08/17 09:55:44;;;;;;;;;;;;;;;30.54;36.69;99769.56;6151174;23;20021;-63
2021/08/17 09:58:20;;;;;;;0.10;0.10;;;;;;;30.53;36.79;99773.31;6152981;23;19923;-63
2021/08/17 10:00:47;;;;;;;0.20;0.20;;;;;;;30.50;36.74;99768.34;6152307;23;20010;-63
2021/08/17 10:03:17;;;;;;;0.00;0.00;;;;;;;30.50;36.65;99757.56;6151325;23;20027;-62
2021/08/17 10:05:44;;;;;;;0.10;0.10;;;;;;;30.47;36.83;99752.59;6152452;23;20023;-62
2021/08/17 10:08:11;;;;;;;0.10;0.10;;;;;;;30.45;36.84;99746.63;6151282;23;20025;-62
2021/08/17 10:10:41;;;;;;;0.10;0.10;;;;;;;30.43;36.86;99762.19;6152659;23;20021;-63
2021/08/17 10:13:12;;;;;;;0.10;0.10;;;;;;;30.35;36.92;99749.75;6151329;23;20091;-62
2021/08/17 10:15:38;;;;;;;0.55;0.38;;;;;;;30.36;36.99;99747.88;6151217;23;20017;-63
2021/08/17 10:18:05;;;;;;;0.30;0.30;;;;;;;30.33;37.18;99746.41;6152282;23;20040;-63
2021/08/17 10:20:31;;;;;;;0.00;0.00;;;;;;;30.30;37.26;99752.22;6126692;23;20021;-63
2021/08/17 10:22:57;;;;;;;0.40;0.40;;;;;;;30.38;37.22;99749.31;6150568;23;20100;-63
2021/08/17 10:25:23;;;;;;;0.17;0.17;;;;;;;30.37;37.02;99755.72;6151016;23;20085;-62
2021/08/17 10:27:49;;;;;;;0.10;0.10;;;;;;;30.36;37.00;99745.19;6152016;23;20021;-61
2021/08/17 10:30:16;;;;;;;0.10;0.10;;;;;;;30.31;37.11;99739.59;6152460;23;20423;-62
2021/08/17 10:32:59;;;;;;;0.30;0.22;;;;;;;30.31;37.33;99736.91;6152209;23;20025;-61
2021/08/17 10:38:12;;;;;;;0.10;0.10;;;;;;;30.31;37.31;99739.59;6152138;23;20553;-63
2021/08/17 10:40:54;;;;;;;0.40;0.40;;;;;;;30.31;37.40;99739.59;6152361;23;20190;-62
2021/08/17 10:43:26;;;;;;;0.40;0.40;;;;;;;30.31;37.46;99736.91;6152521;23;20022;-63
2021/08/17 10:45:59;;;;;;;0.10;0.10;;;;;;;30.27;37.36;99724.88;6151788;23;20037;-62
2021/08/17 10:51:18;;;;;;;0.20;0.20;;;;;;;30.29;37.30;99726.34;6152067;23;20024;-61
2021/08/17 10:53:45;;;;;;;0.20;0.20;;;;;;;30.20;37.42;99716.84;6151843;23;20025;-61
2021/08/17 10:56:18;;;;;;;0.10;0.10;;;;;;;30.30;37.49;99721.78;6150640;23;20024;-63
2021/08/17 10:58:46;;;;;;;0.10;0.10;;;;;;;30.25;37.45;99714.34;6152057;23;20029;-62
2021/08/17 11:01:12;;;;;;;0.30;0.22;;;;;;;30.25;37.45;99713.50;6150547;23;20104;-61
2021/08/17 11:03:39;;;;;;;0.17;0.17;;;;;;;30.26;37.31;99712.47;6151579;23;20018;-61
2021/08/17 11:06:05;;;;;;;0.32;0.32;;;;;;;30.24;37.55;99709.16;6150326;23;20017;-63
2021/08/17 11:08:31;;;;;;;0.10;0.10;;;;;;;30.27;37.45;99708.72;6150760;23;20021;-62
2021/08/17 11:11:01;;;;;;;0.15;0.15;;;;;;;30.28;37.33;99718.47;6152055;23;20112;-62
2021/08/17 11:13:27;;;;;;;;;;;;;;;30.27;37.44;99716.81;6150958;23;20112;-62
2021/08/17 11:16:08;;;;;;;0.10;0.10;;;;;;;30.14;37.64;99692.66;6149970;23;20360;-63
2021/08/17 11:18:51;;;;;;;0.03;0.03;;;;;;;30.25;37.45;99718.91;6152210;23;20076;-63
2021/08/17 11:21:30;;;;;;;0.10;0.10;;;;;;;30.27;37.46;99724.88;6152138;23;20484;-62
2021/08/17 11:24:26;;;;;;;0.93;0.30;;;;;;;30.26;37.48;99717.88;6151601;23;20461;-62
2021/08/17 11:27:11;;;;;;;0.10;0.10;;;;;;;30.27;37.49;99724.88;6126912;23;20021;-62
2021/08/17 11:29:46;;;;;;;0.20;0.20;;;;;;;30.25;37.32;99722.41;6150366;23;20017;-63
2021/08/17 11:32:23;;;;;;;0.30;0.30;;;;;;;30.16;37.47;99701.34;6151885;23;20084;-62
2021/08/17 11:34:49;;;;;;;0.10;0.10;;;;;;;30.20;37.47;99705.25;6151634;23;20017;-62
2021/08/17 11:37:15;;;;;;;0.15;0.15;;;;;;;30.23;37.33;99702.13;6150302;23;20017;-62
2021/08/17 11:39:46;;;;;;;0.00;0.00;;;;;;;30.24;37.38;99707.28;6152230;23;20359;-63
2021/08/17 11:42:26;;;;;;;0.20;0.20;;;;;;;30.24;37.37;99706.47;6150193;23;20528;-62
2021/08/17 11:45:00;;;;;;;0.00;0.00;;;;;;;30.25;37.30;99710.81;6150028;23;20025;-62
2021/08/17 11:47:27;;;;;;;0.20;0.20;;;;;;;30.25;37.20;99708.13;6151626;23;20021;-62
2021/08/17 11:49:54;;;;;;;0.30;0.30;;;;;;;30.25;37.17;99695.47;6151290;23;20013;-62
2021/08/17 11:52:24;;;;;;;0.10;0.10;;;;;;;30.26;37.31;99689.06;6151448;23;20075;-62
2021/08/17 11:54:55;;;;;;;0.10;0.10;;;;;;;30.25;37.24;99689.25;6151360;23;20453;-63
2021/08/17 11:57:28;;;;;;;0.17;0.17;;;;;;;30.25;37.15;99682.00;6150224;23;20080;-63
2021/08/17 11:59:55;;;;;;;0.10;0.10;;;;;;;30.23;37.17;99683.28;6151349;23;20017;-62
2021/08/17 12:02:26;;;;;;;0.00;0.00;;;;;;;30.24;37.06;99683.03;6152332;23;20017;-63
2021/08/17 12:04:57;;;;;;;0.10;0.10;;;;;;;30.26;37.12;99686.38;6151095;23;20025;-61
2021/08/17 12:07:24;;;;;;;0.20;0.20;;;;;;;30.27;36.99;99679.09;6150214;23;20343;-62
2021/08/17 12:09:51;;;;;;;0.20;0.20;;;;;;;30.30;37.00;99686.75;6151263;23;20020;-62